sensor_id;sensor_type;location;lat;lon;timestamp;P1;durP1;ratioP1;P2;durP2;ratioP2
22851;SDS011;11592;45.460;9.240;2023-12-29T00:02:22;0.20;;;0.20;;
22851;SDS011;11592;45.460;9.240;2023-12-29T00:04:49;0.20;;;0.20;;
22851;SDS011;11592;45.460;9.240;2023-12-29T00:07:16;0.20;;;0.20;;
22851;SDS011;11592;45.460;9.240;2023-12-29T00:09:47;0.20;;;0.20;;
22851;SDS011;11592;45.460;9.240;2023-12-29T00:12:14;0.20;;;0.20;;
22851;SDS011;11592;45.460;9.240;2023-12-29T00:14:41;0.20;;;0.20;;
22851;SDS011;11592;45.460;9.240;2023-12-29T00:17:09;0.20;;;0.20;;
22851;SDS011;11592;45.460;9.240;2023-12-29T00:19:36;0.20;;;0.20;;
22851;SDS011;11592;45.460;9.240;2023-12-29T00:22:03;0.20;;;0.20;;
22851;SDS011;11592;45.460;9.240;2023-12-29T00:24:31;0.20;;;0.20;;
22851;SDS011;11592;45.460;9.240;2023-12-29T00:26:58;0.20;;;0.20;;
22851;SDS011;11592;45.460;9.240;2023-12-29T00:29:25;0.20;;;0.20;;
22851;SDS011;11592;45.460;9.240;2023-12-29T00:31:54;0.30;;;0.30;;
22851;SDS011;11592;45.460;9.240;2023-12-29T00:34:21;0.20;;;0.20;;
22851;SDS011;11592;45.460;9.240;2023-12-29T00:36:48;0.20;;;0.20;;
22851;SDS011;11592;45.460;9.240;2023-12-29T00:39:16;0.20;;;0.20;;
22851;SDS011;11592;45.460;9.240;2023-12-29T00:41:43;0.20;;;0.20;;
22851;SDS011;11592;45.460;9.240;2023-12-29T00:44:09;0.20;;;0.20;;
22851;SDS011;11592;45.460;9.240;2023-12-29T00:46:36;0.20;;;0.20;;
22851;SDS011;11592;45.460;9.240;2023-12-29T00:49:03;0.20;;;0.20;;
22851;SDS011;11592;45.460;9.240;2023-12-29T00:51:31;0.20;;;0.20;;
22851;SDS011;11592;45.460;9.240;2023-12-29T00:53:59;0.20;;;0.20;;
22851;SDS011;11592;45.460;9.240;2023-12-29T00:56:26;0.20;;;0.20;;
22851;SDS011;11592;45.460;9.240;2023-12-29T00:58:53;0.20;;;0.20;;
22851;SDS011;11592;45.460;9.240;2023-12-29T01:01:20;0.20;;;0.20;;
22851;SDS011;11592;45.460;9.240;2023-12-29T01:03:47;0.20;;;0.20;;
22851;SDS011;11592;45.460;9.240;2023-12-29T01:06:14;0.20;;;0.20;;
22851;SDS011;11592;45.460;9.240;2023-12-29T01:08:41;0.25;;;0.25;;
22851;SDS011;11592;45.460;9.240;2023-12-29T01:11:08;0.20;;;0.20;;
22851;SDS011;11592;45.460;9.240;2023-12-29T01:13:36;0.28;;;0.28;;
22851;SDS011;11592;45.460;9.240;2023-12-29T01:16:03;0.20;;;0.20;;
22851;SDS011;11592;45.460;9.240;2023-12-29T01:18:31;0.20;;;0.20;;
22851;SDS011;11592;45.460;9.240;2023-12-29T01:20:58;0.20;;;0.20;;
22851;SDS011;11592;45.460;9.240;2023-12-29T01:23:25;0.25;;;0.25;;
22851;SDS011;11592;45.460;9.240;2023-12-29T01:25:52;0.20;;;0.20;;
22851;SDS011;11592;45.460;9.240;2023-12-29T01:28:19;0.20;;;0.20;;
22851;SDS011;11592;45.460;9.240;2023-12-29T01:30:46;0.20;;;0.20;;
22851;SDS011;11592;45.460;9.240;2023-12-29T01:33:13;0.20;;;0.20;;
22851;SDS011;11592;45.460;9.240;2023-12-29T01:35:41;0.25;;;0.25;;
22851;SDS011;11592;45.460;9.240;2023-12-29T01:38:08;0.28;;;0.28;;
22851;SDS011;11592;45.460;9.240;2023-12-29T01:40:42;0.22;;;0.22;;
22851;SDS011;11592;45.460;9.240;2023-12-29T01:43:10;0.20;;;0.20;;
22851;SDS011;11592;45.460;9.240;2023-12-29T01:45:37;0.20;;;0.20;;
22851;SDS011;11592;45.460;9.240;2023-12-29T01:48:21;0.22;;;0.22;;
22851;SDS011;11592;45.460;9.240;2023-12-29T01:50:50;0.20;;;0.20;;
22851;SDS011;11592;45.460;9.240;2023-12-29T01:53:17;0.20;;;0.20;;
22851;SDS011;11592;45.460;9.240;2023-12-29T01:55:52;0.30;;;0.30;;
22851;SDS011;11592;45.460;9.240;2023-12-29T01:58:19;0.20;;;0.20;;
22851;SDS011;11592;45.460;9.240;2023-12-29T02:00:47;0.28;;;0.28;;
22851;SDS011;11592;45.460;9.240;2023-12-29T02:03:14;0.30;;;0.30;;
22851;SDS011;11592;45.460;9.240;2023-12-29T02:05:41;0.20;;;0.20;;
22851;SDS011;11592;45.460;9.240;2023-12-29T02:08:10;0.20;;;0.20;;
22851;SDS011;11592;45.460;9.240;2023-12-29T02:10:37;0.30;;;0.30;;
22851;SDS011;11592;45.460;9.240;2023-12-29T02:13:05;0.28;;;0.28;;
22851;SDS011;11592;45.460;9.240;2023-12-29T02:15:32;0.20;;;0.20;;
22851;SDS011;11592;45.460;9.240;2023-12-29T02:18:02;0.20;;;0.20;;
22851;SDS011;11592;45.460;9.240;2023-12-29T02:20:33;0.22;;;0.22;;
22851;SDS011;11592;45.460;9.240;2023-12-29T02:23:01;0.20;;;0.20;;
22851;SDS011;11592;45.460;9.240;2023-12-29T02:25:29;0.20;;;0.20;;
22851;SDS011;11592;45.460;9.240;2023-12-29T02:28:02;0.20;;;0.20;;
22851;SDS011;11592;45.460;9.240;2023-12-29T02:30:38;0.20;;;0.20;;
22851;SDS011;11592;45.460;9.240;2023-12-29T02:33:16;0.30;;;0.30;;
22851;SDS011;11592;45.460;9.240;2023-12-29T02:35:48;0.30;;;0.30;;
22851;SDS011;11592;45.460;9.240;2023-12-29T02:38:17;0.20;;;0.20;;
22851;SDS011;11592;45.460;9.240;2023-12-29T02:40:45;0.20;;;0.20;;
22851;SDS011;11592;45.460;9.240;2023-12-29T02:43:12;0.30;;;0.30;;
22851;SDS011;11592;45.460;9.240;2023-12-29T02:45:39;0.20;;;0.20;;
22851;SDS011;11592;45.460;9.240;2023-12-29T02:48:07;0.20;;;0.20;;
22851;SDS011;11592;45.460;9.240;2023-12-29T02:50:34;0.22;;;0.22;;
22851;SDS011;11592;45.460;9.240;2023-12-29T02:53:01;0.20;;;0.20;;
22851;SDS011;11592;45.460;9.240;2023-12-29T02:55:30;0.20;;;0.20;;
22851;SDS011;11592;45.460;9.240;2023-12-29T02:57:57;0.30;;;0.30;;
22851;SDS011;11592;45.460;9.240;2023-12-29T03:00:25;0.20;;;0.20;;
22851;SDS011;11592;45.460;9.240;2023-12-29T03:02:52;0.20;;;0.20;;
22851;SDS011;11592;45.460;9.240;2023-12-29T03:05:19;0.20;;;0.20;;
22851;SDS011;11592;45.460;9.240;2023-12-29T03:07:46;0.30;;;0.30;;
22851;SDS011;11592;45.460;9.240;2023-12-29T03:10:13;0.20;;;0.20;;
22851;SDS011;11592;45.460;9.240;2023-12-29T03:12:40;0.20;;;0.20;;
22851;SDS011;11592;45.460;9.240;2023-12-29T03:15:08;0.20;;;0.20;;
22851;SDS011;11592;45.460;9.240;2023-12-29T03:17:35;0.20;;;0.20;;
22851;SDS011;11592;45.460;9.240;2023-12-29T03:20:02;0.20;;;0.20;;
22851;SDS011;11592;45.460;9.240;2023-12-29T03:22:31;0.20;;;0.20;;
22851;SDS011;11592;45.460;9.240;2023-12-29T03:24:58;0.20;;;0.20;;
22851;SDS011;11592;45.460;9.240;2023-12-29T03:27:25;0.30;;;0.30;;
22851;SDS011;11592;45.460;9.240;2023-12-29T03:29:53;0.30;;;0.30;;
22851;SDS011;11592;45.460;9.240;2023-12-29T03:32:20;0.20;;;0.20;;
22851;SDS011;11592;45.460;9.240;2023-12-29T03:34:47;0.20;;;0.20;;
22851;SDS011;11592;45.460;9.240;2023-12-29T03:37:14;0.20;;;0.20;;
22851;SDS011;11592;45.460;9.240;2023-12-29T03:39:42;0.20;;;0.20;;
22851;SDS011;11592;45.460;9.240;2023-12-29T03:42:09;0.28;;;0.28;;
22851;SDS011;11592;45.460;9.240;2023-12-29T03:44:37;0.20;;;0.20;;
22851;SDS011;11592;45.460;9.240;2023-12-29T03:47:04;0.28;;;0.28;;
22851;SDS011;11592;45.460;9.240;2023-12-29T03:49:31;0.20;;;0.20;;
22851;SDS011;11592;45.460;9.240;2023-12-29T03:51:58;0.20;;;0.20;;
22851;SDS011;11592;45.460;9.240;2023-12-29T03:54:26;0.20;;;0.20;;
22851;SDS011;11592;45.460;9.240;2023-12-29T03:56:53;0.20;;;0.20;;
22851;SDS011;11592;45.460;9.240;2023-12-29T03:59:20;0.20;;;0.20;;
22851;SDS011;11592;45.460;9.240;2023-12-29T04:01:47;0.20;;;0.20;;
22851;SDS011;11592;45.460;9.240;2023-12-29T04:04:14;0.20;;;0.20;;
22851;SDS011;11592;45.460;9.240;2023-12-29T04:06:41;0.20;;;0.20;;
22851;SDS011;11592;45.460;9.240;2023-12-29T04:09:09;0.20;;;0.20;;
22851;SDS011;11592;45.460;9.240;2023-12-29T04:11:36;0.20;;;0.20;;
22851;SDS011;11592;45.460;9.240;2023-12-29T04:14:03;0.20;;;0.20;;
22851;SDS011;11592;45.460;9.240;2023-12-29T04:16:30;0.30;;;0.30;;
22851;SDS011;11592;45.460;9.240;2023-12-29T04:18:57;0.20;;;0.20;;
22851;SDS011;11592;45.460;9.240;2023-12-29T04:21:25;0.20;;;0.20;;
22851;SDS011;11592;45.460;9.240;2023-12-29T04:23:52;0.20;;;0.20;;
22851;SDS011;11592;45.460;9.240;2023-12-29T04:26:19;0.30;;;0.30;;
22851;SDS011;11592;45.460;9.240;2023-12-29T04:28:46;0.20;;;0.20;;
22851;SDS011;11592;45.460;9.240;2023-12-29T04:31:13;0.20;;;0.20;;
22851;SDS011;11592;45.460;9.240;2023-12-29T04:33:41;0.20;;;0.20;;
22851;SDS011;11592;45.460;9.240;2023-12-29T04:36:08;0.20;;;0.20;;
22851;SDS011;11592;45.460;9.240;2023-12-29T04:38:35;0.30;;;0.30;;
22851;SDS011;11592;45.460;9.240;2023-12-29T04:41:02;0.20;;;0.20;;
22851;SDS011;11592;45.460;9.240;2023-12-29T04:43:29;0.25;;;0.25;;
22851;SDS011;11592;45.460;9.240;2023-12-29T04:45:56;0.20;;;0.20;;
22851;SDS011;11592;45.460;9.240;2023-12-29T04:48:23;0.25;;;0.25;;
22851;SDS011;11592;45.460;9.240;2023-12-29T04:50:50;0.20;;;0.20;;
22851;SDS011;11592;45.460;9.240;2023-12-29T04:53:18;0.20;;;0.20;;
22851;SDS011;11592;45.460;9.240;2023-12-29T04:55:45;0.20;;;0.20;;
22851;SDS011;11592;45.460;9.240;2023-12-29T04:58:12;0.20;;;0.20;;
22851;SDS011;11592;45.460;9.240;2023-12-29T05:00:40;0.20;;;0.20;;
22851;SDS011;11592;45.460;9.240;2023-12-29T05:03:08;0.28;;;0.28;;
22851;SDS011;11592;45.460;9.240;2023-12-29T05:05:35;0.20;;;0.20;;
22851;SDS011;11592;45.460;9.240;2023-12-29T05:08:02;0.30;;;0.30;;
22851;SDS011;11592;45.460;9.240;2023-12-29T05:10:29;0.30;;;0.30;;
22851;SDS011;11592;45.460;9.240;2023-12-29T05:12:56;0.30;;;0.30;;
22851;SDS011;11592;45.460;9.240;2023-12-29T05:15:23;0.28;;;0.28;;
22851;SDS011;11592;45.460;9.240;2023-12-29T05:17:50;0.22;;;0.22;;
22851;SDS011;11592;45.460;9.240;2023-12-29T05:20:18;0.20;;;0.20;;
22851;SDS011;11592;45.460;9.240;2023-12-29T05:22:45;0.30;;;0.30;;
22851;SDS011;11592;45.460;9.240;2023-12-29T05:25:12;0.20;;;0.20;;
22851;SDS011;11592;45.460;9.240;2023-12-29T05:27:40;0.25;;;0.25;;
22851;SDS011;11592;45.460;9.240;2023-12-29T05:30:07;0.30;;;0.30;;
22851;SDS011;11592;45.460;9.240;2023-12-29T05:32:34;0.20;;;0.20;;
22851;SDS011;11592;45.460;9.240;2023-12-29T05:35:01;0.30;;;0.30;;
22851;SDS011;11592;45.460;9.240;2023-12-29T05:37:29;0.22;;;0.22;;
22851;SDS011;11592;45.460;9.240;2023-12-29T05:39:56;0.30;;;0.30;;
22851;SDS011;11592;45.460;9.240;2023-12-29T05:42:23;0.30;;;0.30;;
22851;SDS011;11592;45.460;9.240;2023-12-29T05:44:50;0.30;;;0.30;;
22851;SDS011;11592;45.460;9.240;2023-12-29T05:47:17;0.20;;;0.20;;
22851;SDS011;11592;45.460;9.240;2023-12-29T05:49:44;0.20;;;0.20;;
22851;SDS011;11592;45.460;9.240;2023-12-29T05:52:12;0.30;;;0.30;;
22851;SDS011;11592;45.460;9.240;2023-12-29T05:54:39;0.20;;;0.20;;
22851;SDS011;11592;45.460;9.240;2023-12-29T05:57:06;0.30;;;0.30;;
22851;SDS011;11592;45.460;9.240;2023-12-29T05:59:33;0.30;;;0.30;;
22851;SDS011;11592;45.460;9.240;2023-12-29T06:02:00;0.28;;;0.28;;
22851;SDS011;11592;45.460;9.240;2023-12-29T06:04:28;0.20;;;0.20;;
22851;SDS011;11592;45.460;9.240;2023-12-29T06:06:55;0.20;;;0.20;;
22851;SDS011;11592;45.460;9.240;2023-12-29T06:09:22;0.20;;;0.20;;
22851;SDS011;11592;45.460;9.240;2023-12-29T06:11:49;0.30;;;0.30;;
22851;SDS011;11592;45.460;9.240;2023-12-29T06:14:16;0.30;;;0.30;;
22851;SDS011;11592;45.460;9.240;2023-12-29T06:16:43;0.30;;;0.30;;
22851;SDS011;11592;45.460;9.240;2023-12-29T06:19:10;0.20;;;0.20;;
22851;SDS011;11592;45.460;9.240;2023-12-29T06:21:40;0.28;;;0.28;;
22851;SDS011;11592;45.460;9.240;2023-12-29T06:24:09;0.30;;;0.30;;
22851;SDS011;11592;45.460;9.240;2023-12-29T06:26:37;0.20;;;0.20;;
22851;SDS011;11592;45.460;9.240;2023-12-29T06:29:10;0.30;;;0.30;;
22851;SDS011;11592;45.460;9.240;2023-12-29T06:31:39;0.20;;;0.20;;
22851;SDS011;11592;45.460;9.240;2023-12-29T06:34:09;0.30;;;0.30;;
22851;SDS011;11592;45.460;9.240;2023-12-29T06:36:36;0.20;;;0.20;;
22851;SDS011;11592;45.460;9.240;2023-12-29T06:39:03;0.20;;;0.20;;
22851;SDS011;11592;45.460;9.240;2023-12-29T06:41:30;0.30;;;0.30;;
22851;SDS011;11592;45.460;9.240;2023-12-29T06:43:57;0.20;;;0.20;;
22851;SDS011;11592;45.460;9.240;2023-12-29T06:46:24;0.20;;;0.20;;
22851;SDS011;11592;45.460;9.240;2023-12-29T06:48:51;0.20;;;0.20;;
22851;SDS011;11592;45.460;9.240;2023-12-29T06:51:18;0.30;;;0.30;;
22851;SDS011;11592;45.460;9.240;2023-12-29T06:53:46;0.20;;;0.20;;
22851;SDS011;11592;45.460;9.240;2023-12-29T06:56:16;0.20;;;0.20;;
22851;SDS011;11592;45.460;9.240;2023-12-29T06:58:44;0.22;;;0.22;;
22851;SDS011;11592;45.460;9.240;2023-12-29T07:01:11;0.20;;;0.20;;
22851;SDS011;11592;45.460;9.240;2023-12-29T07:03:38;0.30;;;0.30;;
22851;SDS011;11592;45.460;9.240;2023-12-29T07:06:06;0.20;;;0.20;;
22851;SDS011;11592;45.460;9.240;2023-12-29T07:08:33;0.20;;;0.20;;
22851;SDS011;11592;45.460;9.240;2023-12-29T07:11:00;0.20;;;0.20;;
22851;SDS011;11592;45.460;9.240;2023-12-29T07:13:27;0.20;;;0.20;;
22851;SDS011;11592;45.460;9.240;2023-12-29T07:15:54;0.20;;;0.20;;
22851;SDS011;11592;45.460;9.240;2023-12-29T07:18:21;0.20;;;0.20;;
22851;SDS011;11592;45.460;9.240;2023-12-29T07:20:48;0.30;;;0.30;;
22851;SDS011;11592;45.460;9.240;2023-12-29T07:23:15;0.20;;;0.20;;
22851;SDS011;11592;45.460;9.240;2023-12-29T07:25:42;0.20;;;0.20;;
22851;SDS011;11592;45.460;9.240;2023-12-29T07:28:09;0.30;;;0.30;;
22851;SDS011;11592;45.460;9.240;2023-12-29T07:30:36;0.20;;;0.20;;
22851;SDS011;11592;45.460;9.240;2023-12-29T07:33:04;0.25;;;0.25;;
22851;SDS011;11592;45.460;9.240;2023-12-29T07:35:31;0.20;;;0.20;;
22851;SDS011;11592;45.460;9.240;2023-12-29T07:37:59;0.20;;;0.20;;
22851;SDS011;11592;45.460;9.240;2023-12-29T07:40:26;0.30;;;0.30;;
22851;SDS011;11592;45.460;9.240;2023-12-29T07:42:53;0.20;;;0.20;;
22851;SDS011;11592;45.460;9.240;2023-12-29T07:45:21;0.20;;;0.20;;
22851;SDS011;11592;45.460;9.240;2023-12-29T07:47:48;0.30;;;0.30;;
22851;SDS011;11592;45.460;9.240;2023-12-29T07:50:15;0.20;;;0.20;;
22851;SDS011;11592;45.460;9.240;2023-12-29T07:52:43;0.20;;;0.20;;
22851;SDS011;11592;45.460;9.240;2023-12-29T07:55:10;0.20;;;0.20;;
22851;SDS011;11592;45.460;9.240;2023-12-29T07:57:37;0.20;;;0.20;;
22851;SDS011;11592;45.460;9.240;2023-12-29T08:00:05;0.30;;;0.30;;
22851;SDS011;11592;45.460;9.240;2023-12-29T08:02:32;0.22;;;0.22;;
22851;SDS011;11592;45.460;9.240;2023-12-29T08:05:00;0.20;;;0.20;;
22851;SDS011;11592;45.460;9.240;2023-12-29T08:07:27;0.20;;;0.20;;
22851;SDS011;11592;45.460;9.240;2023-12-29T08:09:54;0.20;;;0.20;;
22851;SDS011;11592;45.460;9.240;2023-12-29T08:12:21;0.28;;;0.28;;
22851;SDS011;11592;45.460;9.240;2023-12-29T08:14:48;0.20;;;0.20;;
22851;SDS011;11592;45.460;9.240;2023-12-29T08:17:15;0.20;;;0.20;;
22851;SDS011;11592;45.460;9.240;2023-12-29T08:19:42;0.30;;;0.30;;
22851;SDS011;11592;45.460;9.240;2023-12-29T08:22:09;0.25;;;0.25;;
22851;SDS011;11592;45.460;9.240;2023-12-29T08:24:39;0.30;;;0.30;;
22851;SDS011;11592;45.460;9.240;2023-12-29T08:27:07;0.30;;;0.30;;
22851;SDS011;11592;45.460;9.240;2023-12-29T08:29:34;0.20;;;0.20;;
22851;SDS011;11592;45.460;9.240;2023-12-29T08:32:01;0.20;;;0.20;;
22851;SDS011;11592;45.460;9.240;2023-12-29T08:34:28;0.20;;;0.20;;
22851;SDS011;11592;45.460;9.240;2023-12-29T08:36:55;0.30;;;0.30;;
22851;SDS011;11592;45.460;9.240;2023-12-29T08:39:22;0.20;;;0.20;;
22851;SDS011;11592;45.460;9.240;2023-12-29T08:41:49;0.25;;;0.25;;
22851;SDS011;11592;45.460;9.240;2023-12-29T08:44:17;0.20;;;0.20;;
22851;SDS011;11592;45.460;9.240;2023-12-29T08:46:44;0.20;;;0.20;;
22851;SDS011;11592;45.460;9.240;2023-12-29T08:49:11;0.20;;;0.20;;
22851;SDS011;11592;45.460;9.240;2023-12-29T08:51:38;0.20;;;0.20;;
22851;SDS011;11592;45.460;9.240;2023-12-29T08:54:05;0.20;;;0.20;;
22851;SDS011;11592;45.460;9.240;2023-12-29T08:56:33;0.20;;;0.20;;
22851;SDS011;11592;45.460;9.240;2023-12-29T08:58:59;0.30;;;0.30;;
22851;SDS011;11592;45.460;9.240;2023-12-29T09:01:27;0.30;;;0.30;;
22851;SDS011;11592;45.460;9.240;2023-12-29T09:03:53;0.30;;;0.30;;
22851;SDS011;11592;45.460;9.240;2023-12-29T09:06:21;0.30;;;0.30;;
22851;SDS011;11592;45.460;9.240;2023-12-29T09:08:48;0.20;;;0.20;;
22851;SDS011;11592;45.460;9.240;2023-12-29T09:11:15;0.30;;;0.30;;
22851;SDS011;11592;45.460;9.240;2023-12-29T09:13:43;0.20;;;0.20;;
22851;SDS011;11592;45.460;9.240;2023-12-29T09:16:10;0.30;;;0.30;;
22851;SDS011;11592;45.460;9.240;2023-12-29T09:18:37;0.20;;;0.20;;
22851;SDS011;11592;45.460;9.240;2023-12-29T09:21:04;0.20;;;0.20;;
22851;SDS011;11592;45.460;9.240;2023-12-29T09:23:32;0.20;;;0.20;;
22851;SDS011;11592;45.460;9.240;2023-12-29T09:25:59;0.20;;;0.20;;
22851;SDS011;11592;45.460;9.240;2023-12-29T09:28:26;0.25;;;0.25;;
22851;SDS011;11592;45.460;9.240;2023-12-29T09:30:53;0.20;;;0.20;;
22851;SDS011;11592;45.460;9.240;2023-12-29T09:33:20;0.30;;;0.30;;
22851;SDS011;11592;45.460;9.240;2023-12-29T09:35:49;0.30;;;0.30;;
22851;SDS011;11592;45.460;9.240;2023-12-29T09:38:16;0.30;;;0.30;;
22851;SDS011;11592;45.460;9.240;2023-12-29T09:40:43;0.30;;;0.30;;
22851;SDS011;11592;45.460;9.240;2023-12-29T09:43:11;0.30;;;0.30;;
22851;SDS011;11592;45.460;9.240;2023-12-29T09:45:39;0.30;;;0.30;;
22851;SDS011;11592;45.460;9.240;2023-12-29T09:48:11;0.30;;;0.30;;
22851;SDS011;11592;45.460;9.240;2023-12-29T09:50:43;0.30;;;0.30;;
22851;SDS011;11592;45.460;9.240;2023-12-29T09:53:10;0.30;;;0.30;;
22851;SDS011;11592;45.460;9.240;2023-12-29T09:55:39;0.30;;;0.30;;
22851;SDS011;11592;45.460;9.240;2023-12-29T09:58:08;0.20;;;0.20;;
22851;SDS011;11592;45.460;9.240;2023-12-29T10:00:38;0.30;;;0.30;;
22851;SDS011;11592;45.460;9.240;2023-12-29T10:03:06;0.22;;;0.22;;
22851;SDS011;11592;45.460;9.240;2023-12-29T10:05:35;0.22;;;0.22;;
22851;SDS011;11592;45.460;9.240;2023-12-29T10:08:02;0.20;;;0.20;;
22851;SDS011;11592;45.460;9.240;2023-12-29T10:10:32;0.25;;;0.25;;
22851;SDS011;11592;45.460;9.240;2023-12-29T10:13:01;0.28;;;0.28;;
22851;SDS011;11592;45.460;9.240;2023-12-29T10:18:01;0.25;;;0.25;;
22851;SDS011;11592;45.460;9.240;2023-12-29T10:20:55;0.30;;;0.30;;
22851;SDS011;11592;45.460;9.240;2023-12-29T10:23:40;0.20;;;0.20;;
22851;SDS011;11592;45.460;9.240;2023-12-29T10:26:12;0.22;;;0.22;;
22851;SDS011;11592;45.460;9.240;2023-12-29T10:28:39;0.20;;;0.20;;
22851;SDS011;11592;45.460;9.240;2023-12-29T10:31:07;0.25;;;0.25;;
22851;SDS011;11592;45.460;9.240;2023-12-29T10:33:40;0.30;;;0.30;;
22851;SDS011;11592;45.460;9.240;2023-12-29T10:36:08;0.30;;;0.30;;
22851;SDS011;11592;45.460;9.240;2023-12-29T10:38:39;0.22;;;0.22;;
22851;SDS011;11592;45.460;9.240;2023-12-29T10:43:43;0.30;;;0.30;;
22851;SDS011;11592;45.460;9.240;2023-12-29T10:46:13;0.30;;;0.30;;
22851;SDS011;11592;45.460;9.240;2023-12-29T10:48:41;0.30;;;0.30;;
22851;SDS011;11592;45.460;9.240;2023-12-29T10:51:09;0.30;;;0.30;;
22851;SDS011;11592;45.460;9.240;2023-12-29T10:53:36;0.20;;;0.20;;
22851;SDS011;11592;45.460;9.240;2023-12-29T10:56:17;0.30;;;0.30;;
22851;SDS011;11592;45.460;9.240;2023-12-29T10:59:03;0.20;;;0.20;;
22851;SDS011;11592;45.460;9.240;2023-12-29T11:01:32;0.20;;;0.20;;
22851;SDS011;11592;45.460;9.240;2023-12-29T11:04:01;0.20;;;0.20;;
22851;SDS011;11592;45.460;9.240;2023-12-29T11:06:42;0.22;;;0.22;;
22851;SDS011;11592;45.460;9.240;2023-12-29T11:09:14;0.22;;;0.22;;
22851;SDS011;11592;45.460;9.240;2023-12-29T11:11:53;0.20;;;0.20;;
22851;SDS011;11592;45.460;9.240;2023-12-29T11:14:21;0.20;;;0.20;;
22851;SDS011;11592;45.460;9.240;2023-12-29T11:16:48;0.20;;;0.20;;
22851;SDS011;11592;45.460;9.240;2023-12-29T11:19:16;0.30;;;0.30;;
22851;SDS011;11592;45.460;9.240;2023-12-29T11:21:44;0.20;;;0.20;;
22851;SDS011;11592;45.460;9.240;2023-12-29T11:24:11;0.20;;;0.20;;
22851;SDS011;11592;45.460;9.240;2023-12-29T11:26:46;0.20;;;0.20;;
22851;SDS011;11592;45.460;9.240;2023-12-29T11:29:13;0.30;;;0.30;;
22851;SDS011;11592;45.460;9.240;2023-12-29T11:31:42;0.20;;;0.20;;
22851;SDS011;11592;45.460;9.240;2023-12-29T11:36:40;0.20;;;0.20;;
22851;SDS011;11592;45.460;9.240;2023-12-29T11:39:25;0.20;;;0.20;;
22851;SDS011;11592;45.460;9.240;2023-12-29T11:42:02;0.20;;;0.20;;
22851;SDS011;11592;45.460;9.240;2023-12-29T11:44:40;0.20;;;0.20;;
22851;SDS011;11592;45.460;9.240;2023-12-29T11:47:12;0.20;;;0.20;;
22851;SDS011;11592;45.460;9.240;2023-12-29T11:50:04;0.20;;;0.20;;
22851;SDS011;11592;45.460;9.240;2023-12-29T11:52:36;0.20;;;0.20;;
22851;SDS011;11592;45.460;9.240;2023-12-29T11:55:12;0.22;;;0.22;;
22851;SDS011;11592;45.460;9.240;2023-12-29T11:57:41;0.30;;;0.30;;
22851;SDS011;11592;45.460;9.240;2023-12-29T12:00:09;0.20;;;0.20;;
22851;SDS011;11592;45.460;9.240;2023-12-29T12:02:37;0.20;;;0.20;;
22851;SDS011;11592;45.460;9.240;2023-12-29T12:05:04;0.30;;;0.30;;
22851;SDS011;11592;45.460;9.240;2023-12-29T12:12:47;0.22;;;0.22;;
22851;SDS011;11592;45.460;9.240;2023-12-29T12:17:54;0.30;;;0.30;;
22851;SDS011;11592;45.460;9.240;2023-12-29T12:20:21;0.20;;;0.20;;
22851;SDS011;11592;45.460;9.240;2023-12-29T12:22:50;0.20;;;0.20;;
22851;SDS011;11592;45.460;9.240;2023-12-29T12:25:28;0.20;;;0.20;;
22851;SDS011;11592;45.460;9.240;2023-12-29T12:27:56;0.28;;;0.28;;
22851;SDS011;11592;45.460;9.240;2023-12-29T12:30:23;0.30;;;0.30;;
22851;SDS011;11592;45.460;9.240;2023-12-29T12:32:57;0.20;;;0.20;;
22851;SDS011;11592;45.460;9.240;2023-12-29T12:35:25;0.20;;;0.20;;
22851;SDS011;11592;45.460;9.240;2023-12-29T12:38:12;0.20;;;0.20;;
22851;SDS011;11592;45.460;9.240;2023-12-29T12:40:40;0.20;;;0.20;;
22851;SDS011;11592;45.460;9.240;2023-12-29T12:43:08;0.20;;;0.20;;
22851;SDS011;11592;45.460;9.240;2023-12-29T12:46:03;0.20;;;0.20;;
22851;SDS011;11592;45.460;9.240;2023-12-29T12:48:32;0.20;;;0.20;;
22851;SDS011;11592;45.460;9.240;2023-12-29T12:51:02;0.20;;;0.20;;
22851;SDS011;11592;45.460;9.240;2023-12-29T12:53:29;0.20;;;0.20;;
22851;SDS011;11592;45.460;9.240;2023-12-29T12:55:57;0.22;;;0.22;;
22851;SDS011;11592;45.460;9.240;2023-12-29T12:58:24;0.30;;;0.30;;
22851;SDS011;11592;45.460;9.240;2023-12-29T13:00:56;0.30;;;0.30;;
22851;SDS011;11592;45.460;9.240;2023-12-29T13:03:24;0.20;;;0.20;;
22851;SDS011;11592;45.460;9.240;2023-12-29T13:05:52;0.30;;;0.30;;
22851;SDS011;11592;45.460;9.240;2023-12-29T13:08:20;0.20;;;0.20;;
22851;SDS011;11592;45.460;9.240;2023-12-29T13:10:59;0.20;;;0.20;;
22851;SDS011;11592;45.460;9.240;2023-12-29T13:13:39;0.20;;;0.20;;
22851;SDS011;11592;45.460;9.240;2023-12-29T13:16:08;0.20;;;0.20;;
22851;SDS011;11592;45.460;9.240;2023-12-29T13:18:35;0.20;;;0.20;;
22851;SDS011;11592;45.460;9.240;2023-12-29T13:21:03;0.20;;;0.20;;
22851;SDS011;11592;45.460;9.240;2023-12-29T13:23:30;0.22;;;0.22;;
22851;SDS011;11592;45.460;9.240;2023-12-29T13:25:59;0.20;;;0.20;;
22851;SDS011;11592;45.460;9.240;2023-12-29T13:28:28;0.20;;;0.20;;
22851;SDS011;11592;45.460;9.240;2023-12-29T13:30:59;0.20;;;0.20;;
22851;SDS011;11592;45.460;9.240;2023-12-29T13:36:28;0.20;;;0.20;;
22851;SDS011;11592;45.460;9.240;2023-12-29T13:39:07;0.20;;;0.20;;
22851;SDS011;11592;45.460;9.240;2023-12-29T13:41:42;0.20;;;0.20;;
22851;SDS011;11592;45.460;9.240;2023-12-29T13:44:09;0.22;;;0.22;;
22851;SDS011;11592;45.460;9.240;2023-12-29T13:46:37;0.20;;;0.20;;
22851;SDS011;11592;45.460;9.240;2023-12-29T13:49:05;0.30;;;0.30;;
22851;SDS011;11592;45.460;9.240;2023-12-29T13:51:33;0.20;;;0.20;;
22851;SDS011;11592;45.460;9.240;2023-12-29T13:54:00;0.20;;;0.20;;
22851;SDS011;11592;45.460;9.240;2023-12-29T13:56:28;0.20;;;0.20;;
22851;SDS011;11592;45.460;9.240;2023-12-29T13:58:56;0.20;;;0.20;;
22851;SDS011;11592;45.460;9.240;2023-12-29T14:01:23;0.30;;;0.30;;
22851;SDS011;11592;45.460;9.240;2023-12-29T14:03:59;0.20;;;0.20;;
22851;SDS011;11592;45.460;9.240;2023-12-29T14:07:16;0.20;;;0.20;;
22851;SDS011;11592;45.460;9.240;2023-12-29T14:09:27;0.20;;;0.20;;
22851;SDS011;11592;45.460;9.240;2023-12-29T14:11:54;0.20;;;0.20;;
22851;SDS011;11592;45.460;9.240;2023-12-29T14:14:22;0.30;;;0.30;;
22851;SDS011;11592;45.460;9.240;2023-12-29T14:16:53;0.30;;;0.30;;
22851;SDS011;11592;45.460;9.240;2023-12-29T14:19:20;0.20;;;0.20;;
22851;SDS011;11592;45.460;9.240;2023-12-29T14:21:52;0.30;;;0.30;;
22851;SDS011;11592;45.460;9.240;2023-12-29T14:24:20;0.30;;;0.30;;
22851;SDS011;11592;45.460;9.240;2023-12-29T14:29:22;0.30;;;0.30;;
22851;SDS011;11592;45.460;9.240;2023-12-29T14:31:49;0.20;;;0.20;;
22851;SDS011;11592;45.460;9.240;2023-12-29T14:34:22;3.95;;;2.20;;
22851;SDS011;11592;45.460;9.240;2023-12-29T14:36:49;1.75;;;1.65;;
22851;SDS011;11592;45.460;9.240;2023-12-29T14:39:17;1.63;;;1.52;;
22851;SDS011;11592;45.460;9.240;2023-12-29T14:41:44;0.95;;;0.95;;
22851;SDS011;11592;45.460;9.240;2023-12-29T14:44:12;1.17;;;1.13;;
22851;SDS011;11592;45.460;9.240;2023-12-29T14:46:39;0.77;;;0.77;;
22851;SDS011;11592;45.460;9.240;2023-12-29T14:49:07;1.00;;;1.00;;
22851;SDS011;11592;45.460;9.240;2023-12-29T14:51:34;1.27;;;1.20;;
22851;SDS011;11592;45.460;9.240;2023-12-29T14:54:01;1.17;;;1.17;;
22851;SDS011;11592;45.460;9.240;2023-12-29T14:56:32;1.00;;;1.00;;
22851;SDS011;11592;45.460;9.240;2023-12-29T14:58:59;0.90;;;0.90;;
22851;SDS011;11592;45.460;9.240;2023-12-29T15:01:27;0.98;;;0.98;;
22851;SDS011;11592;45.460;9.240;2023-12-29T15:03:55;0.73;;;0.73;;
22851;SDS011;11592;45.460;9.240;2023-12-29T15:06:22;0.63;;;0.63;;
22851;SDS011;11592;45.460;9.240;2023-12-29T15:08:49;0.63;;;0.63;;
22851;SDS011;11592;45.460;9.240;2023-12-29T15:11:16;0.63;;;0.63;;
22851;SDS011;11592;45.460;9.240;2023-12-29T15:13:47;0.70;;;0.70;;
22851;SDS011;11592;45.460;9.240;2023-12-29T15:16:14;0.63;;;0.63;;
22851;SDS011;11592;45.460;9.240;2023-12-29T15:18:41;0.57;;;0.57;;